createdAt,value
2023-08-20T00:01:08.919Z,11.60
2023-08-20T00:03:36.092Z,10.35
2023-08-20T00:06:05.102Z,11.02
2023-08-20T00:08:31.973Z,11.70
2023-08-20T00:10:58.751Z,11.13
2023-08-20T00:13:25.648Z,10.70
2023-08-20T00:15:52.679Z,10.55
2023-08-20T00:18:19.810Z,11.57
2023-08-20T00:20:47.032Z,15.05
2023-08-20T00:23:14.223Z,12.77
2023-08-20T00:25:41.441Z,12.85
2023-08-20T00:28:08.205Z,11.35
2023-08-20T00:30:34.998Z,7.38
2023-08-20T00:33:01.815Z,10.35
2023-08-20T00:35:28.720Z,12.50
2023-08-20T00:37:55.529Z,9.77
2023-08-20T00:40:22.391Z,12.65
2023-08-20T00:42:49.386Z,11.85
2023-08-20T00:45:19.918Z,12.82
2023-08-20T00:47:47.050Z,16.27
2023-08-20T00:50:13.998Z,9.48
2023-08-20T00:52:41.121Z,12.65
2023-08-20T00:55:14.475Z,11.65
2023-08-20T00:57:41.870Z,9.57
2023-08-20T01:00:10.326Z,9.07
2023-08-20T01:02:38.841Z,14.20
2023-08-20T01:05:09.112Z,12.95
2023-08-20T01:08:07.492Z,12.98
2023-08-20T01:10:46.309Z,10.02
2023-08-20T01:13:13.527Z,14.68
2023-08-20T01:15:40.427Z,13.88
2023-08-20T01:18:07.305Z,10.82
2023-08-20T01:20:41.002Z,13.57
2023-08-20T01:23:26.373Z,13.10
2023-08-20T01:25:58.712Z,13.43
2023-08-20T01:28:30.370Z,11.27
2023-08-20T01:30:59.069Z,8.88
2023-08-20T01:33:26.321Z,12.88
2023-08-20T01:35:54.437Z,10.48
2023-08-20T01:38:21.630Z,13.10
2023-08-20T01:40:49.321Z,14.93
2023-08-20T01:43:16.626Z,12.15
2023-08-20T01:45:44.672Z,14.70
2023-08-20T01:48:11.584Z,10.38
2023-08-20T01:50:38.379Z,11.57
2023-08-20T01:53:05.286Z,15.18
2023-08-20T01:55:33.038Z,10.48
2023-08-20T01:58:00.377Z,14.88
2023-08-20T02:00:28.744Z,10.85
2023-08-20T02:02:55.756Z,13.32
2023-08-20T02:05:22.653Z,11.18
2023-08-20T02:07:49.501Z,12.75
2023-08-20T02:10:16.363Z,13.38
2023-08-20T02:12:43.254Z,7.43
2023-08-20T02:15:12.250Z,12.07
2023-08-20T02:17:39.427Z,13.70
2023-08-20T02:20:07.846Z,11.68
2023-08-20T02:22:35.385Z,10.65
2023-08-20T02:25:02.451Z,11.20
2023-08-20T02:27:29.267Z,17.40
2023-08-20T02:29:56.124Z,11.73
2023-08-20T02:32:22.970Z,13.50
2023-08-20T02:34:53.303Z,10.52
2023-08-20T02:37:20.167Z,15.68
2023-08-20T02:39:46.982Z,14.00
2023-08-20T02:42:13.731Z,10.27
2023-08-20T02:44:40.439Z,12.15
2023-08-20T02:47:07.374Z,12.55
2023-08-20T02:49:34.270Z,13.57
2023-08-20T02:52:01.032Z,11.93
2023-08-20T02:54:28.000Z,15.32
2023-08-20T02:56:54.764Z,10.07
2023-08-20T02:59:21.497Z,14.07
2023-08-20T03:01:48.377Z,14.55
2023-08-20T03:04:15.267Z,10.75
2023-08-20T03:06:42.088Z,15.10
2023-08-20T03:09:08.868Z,14.40
2023-08-20T03:11:35.662Z,13.88
2023-08-20T03:14:02.410Z,12.88
2023-08-20T03:16:29.191Z,11.63
2023-08-20T03:18:56.005Z,15.95
2023-08-20T03:21:22.839Z,13.25
2023-08-20T03:23:50.575Z,13.43
2023-08-20T03:26:17.410Z,14.73
2023-08-20T03:28:44.309Z,13.73
2023-08-20T03:31:11.122Z,11.18
2023-08-20T03:33:37.911Z,11.82
2023-08-20T03:36:05.081Z,9.65
2023-08-20T03:38:31.898Z,13.27
2023-08-20T03:40:58.741Z,11.43
2023-08-20T03:43:25.504Z,10.02
2023-08-20T03:45:53.199Z,17.05
2023-08-20T03:48:20.265Z,14.82
2023-08-20T03:50:46.982Z,15.23
2023-08-20T03:53:13.749Z,13.55
2023-08-20T03:55:40.519Z,16.50
2023-08-20T03:58:08.076Z,13.63
2023-08-20T04:00:37.216Z,10.52
2023-08-20T04:03:04.259Z,17.33
2023-08-20T04:05:36.490Z,15.75
2023-08-20T04:08:04.321Z,15.30
2023-08-20T04:10:31.416Z,12.95
2023-08-20T04:12:58.402Z,18.15
2023-08-20T04:15:25.130Z,18.20
2023-08-20T04:17:52.014Z,14.40
2023-08-20T04:20:18.825Z,12.10
2023-08-20T04:22:45.650Z,15.77
2023-08-20T04:25:12.705Z,14.82
2023-08-20T04:27:39.613Z,12.82
2023-08-20T04:30:07.771Z,21.92
2023-08-20T04:32:34.790Z,15.68
2023-08-20T04:35:01.756Z,17.05
2023-08-20T04:37:28.548Z,17.85
2023-08-20T04:39:55.315Z,11.93
2023-08-20T04:42:22.146Z,10.68
2023-08-20T04:44:48.874Z,11.15
2023-08-20T04:47:15.826Z,11.82
2023-08-20T04:49:42.673Z,12.45
2023-08-20T04:52:09.441Z,13.20
2023-08-20T04:54:36.235Z,15.40
2023-08-20T04:57:03.357Z,16.17
2023-08-20T04:59:30.107Z,18.63
2023-08-20T05:01:56.822Z,10.70
2023-08-20T05:04:24.037Z,15.75
2023-08-20T05:06:51.318Z,14.13
2023-08-20T05:09:18.083Z,10.63
2023-08-20T05:11:44.863Z,13.05
2023-08-20T05:14:11.618Z,13.43
2023-08-20T05:16:38.409Z,12.35
2023-08-20T05:19:05.167Z,15.93
2023-08-20T05:21:31.921Z,13.00
2023-08-20T05:23:58.680Z,10.05
2023-08-20T05:26:25.424Z,12.48
2023-08-20T05:28:52.151Z,10.43
2023-08-20T05:31:18.939Z,16.38
2023-08-20T05:33:45.816Z,12.20
2023-08-20T05:36:12.598Z,13.30
2023-08-20T05:38:39.457Z,13.07
2023-08-20T05:41:06.462Z,14.68
2023-08-20T05:43:33.190Z,14.35
2023-08-20T05:46:00.029Z,12.38
2023-08-20T05:48:26.769Z,14.45
2023-08-20T05:50:53.599Z,13.85
2023-08-20T05:53:20.448Z,15.32
2023-08-20T05:55:47.213Z,10.38
2023-08-20T05:58:13.996Z,13.65
2023-08-20T06:00:41.054Z,18.05
2023-08-20T06:03:10.642Z,15.50
2023-08-20T06:05:37.717Z,15.18
2023-08-20T06:08:04.791Z,16.63
2023-08-20T06:10:32.095Z,13.10
2023-08-20T06:12:58.837Z,14.10
2023-08-20T06:15:25.631Z,17.45
2023-08-20T06:17:52.625Z,11.32
2023-08-20T06:20:19.912Z,14.13
2023-08-20T06:22:46.842Z,13.52
2023-08-20T06:25:13.670Z,13.23
2023-08-20T06:27:40.453Z,12.30
2023-08-20T06:30:07.925Z,15.20
2023-08-20T06:32:35.458Z,13.43
2023-08-20T06:35:02.309Z,14.93
2023-08-20T06:37:29.094Z,15.05
2023-08-20T06:39:55.854Z,14.80
2023-08-20T06:42:22.631Z,16.20
2023-08-20T06:44:49.413Z,13.63
2023-08-20T06:47:16.239Z,14.27
2023-08-20T06:49:43.100Z,12.85
2023-08-20T06:52:10.452Z,18.52
2023-08-20T06:54:37.275Z,15.85
2023-08-20T06:57:04.319Z,13.20
2023-08-20T06:59:31.083Z,16.02
2023-08-20T07:01:57.875Z,14.48
2023-08-20T07:04:25.100Z,15.05
2023-08-20T07:06:52.752Z,13.35
2023-08-20T07:09:19.548Z,11.38
2023-08-20T07:11:47.986Z,14.57
2023-08-20T07:14:16.426Z,16.65
2023-08-20T07:16:43.317Z,15.90
2023-08-20T07:19:10.047Z,13.75
2023-08-20T07:21:36.825Z,20.25
2023-08-20T07:24:03.801Z,16.63
2023-08-20T07:26:31.097Z,14.15
2023-08-20T07:28:57.969Z,12.63
2023-08-20T07:31:25.888Z,13.35
2023-08-20T07:33:53.607Z,15.27
2023-08-20T07:36:23.167Z,16.95
2023-08-20T07:38:50.718Z,12.88
2023-08-20T07:41:17.724Z,10.20
2023-08-20T07:43:44.660Z,11.95
2023-08-20T07:46:11.664Z,13.63
2023-08-20T07:48:38.567Z,10.68
2023-08-20T07:51:05.701Z,12.75
2023-08-20T07:53:33.621Z,12.65
2023-08-20T07:56:03.669Z,11.27
2023-08-20T07:58:31.109Z,16.88
2023-08-20T08:00:59.105Z,11.50
2023-08-20T08:03:27.790Z,12.57
2023-08-20T08:05:55.263Z,12.25
2023-08-20T08:08:22.978Z,12.27
2023-08-20T08:10:50.411Z,10.98
2023-08-20T08:13:21.805Z,9.48
2023-08-20T08:15:49.046Z,10.02
2023-08-20T08:18:15.999Z,10.05
2023-08-20T08:20:42.939Z,10.82
2023-08-20T08:23:09.986Z,10.30
2023-08-20T08:25:36.824Z,11.43
2023-08-20T08:28:04.268Z,9.65
2023-08-20T08:30:31.316Z,12.00
2023-08-20T08:32:59.126Z,10.07
2023-08-20T08:35:26.013Z,12.30
2023-08-20T08:37:52.913Z,14.20
2023-08-20T08:40:19.793Z,9.70
2023-08-20T08:42:52.972Z,10.27
2023-08-20T08:45:23.426Z,9.93
2023-08-20T08:47:51.760Z,8.13
2023-08-20T08:50:18.791Z,8.82
2023-08-20T08:52:47.695Z,9.80
2023-08-20T08:55:14.525Z,6.82
2023-08-20T08:57:41.344Z,8.55
2023-08-20T09:00:08.680Z,10.45
2023-08-20T09:02:35.466Z,8.82
2023-08-20T09:05:02.289Z,11.60
2023-08-20T09:07:30.078Z,7.75
2023-08-20T09:10:01.639Z,11.85
2023-08-20T09:12:28.868Z,9.68
2023-08-20T09:15:01.538Z,12.80
2023-08-20T09:17:29.667Z,11.80
2023-08-20T09:19:58.376Z,9.07
2023-08-20T09:22:25.391Z,9.48
2023-08-20T09:24:57.075Z,6.38
2023-08-20T09:27:24.759Z,7.75
2023-08-20T09:30:01.005Z,8.73
2023-08-20T09:32:29.476Z,7.45
2023-08-20T09:34:57.170Z,8.40
2023-08-20T09:37:24.976Z,9.23
2023-08-20T09:39:52.043Z,9.90
2023-08-20T09:42:18.977Z,8.38
2023-08-20T09:44:49.573Z,7.82
2023-08-20T09:47:19.081Z,9.02
2023-08-20T09:49:48.338Z,10.38
2023-08-20T09:52:26.621Z,7.88
2023-08-20T09:54:56.095Z,8.45
2023-08-20T09:57:37.063Z,6.30
2023-08-20T10:02:34.986Z,5.68
2023-08-20T10:05:03.406Z,7.35
2023-08-20T10:07:34.536Z,7.68
2023-08-20T10:10:07.139Z,10.65
2023-08-20T10:12:35.420Z,8.88
2023-08-20T10:15:03.311Z,8.25
2023-08-20T10:17:35.503Z,6.90
2023-08-20T10:20:05.339Z,6.70
2023-08-20T10:22:46.084Z,4.47
2023-08-20T10:25:24.189Z,6.85
2023-08-20T10:27:51.134Z,6.32
2023-08-20T10:30:26.654Z,6.00
2023-08-20T10:32:55.363Z,8.18
2023-08-20T10:35:47.154Z,5.75
2023-08-20T10:38:20.519Z,6.70
2023-08-20T10:40:53.465Z,7.10
2023-08-20T10:43:30.862Z,8.38
2023-08-20T10:46:16.189Z,6.32
2023-08-20T10:48:43.874Z,11.20
2023-08-20T10:51:15.401Z,6.38
2023-08-20T10:53:44.097Z,5.82
2023-08-20T10:56:16.029Z,7.55
2023-08-20T10:58:47.604Z,5.82
2023-08-20T11:01:20.853Z,7.63
2023-08-20T11:03:49.771Z,6.25
2023-08-20T11:06:17.477Z,5.05
2023-08-20T11:08:45.187Z,4.90
2023-08-20T11:11:12.824Z,3.60
2023-08-20T11:13:39.817Z,7.03
2023-08-20T11:16:08.883Z,4.90
2023-08-20T11:18:36.051Z,6.60
2023-08-20T11:21:03.768Z,7.90
2023-08-20T11:23:30.774Z,5.40
2023-08-20T11:25:58.713Z,4.45
2023-08-20T11:28:28.096Z,4.57
2023-08-20T11:30:56.996Z,4.35
2023-08-20T11:33:25.137Z,3.42
2023-08-20T11:35:53.064Z,4.55
2023-08-20T11:38:22.788Z,4.65
2023-08-20T11:40:49.602Z,3.40
2023-08-20T11:43:17.971Z,8.75
2023-08-20T11:45:49.454Z,4.80
2023-08-20T11:48:17.720Z,4.22
2023-08-20T11:50:45.275Z,3.67
2023-08-20T11:53:12.390Z,3.92
2023-08-20T11:55:41.313Z,3.83
2023-08-20T11:58:12.661Z,4.40
2023-08-20T12:00:39.744Z,5.05
2023-08-20T12:03:06.837Z,4.65
2023-08-20T12:05:33.647Z,5.40
2023-08-20T12:08:02.510Z,5.05
2023-08-20T12:10:30.880Z,5.18
2023-08-20T12:12:58.546Z,4.25
2023-08-20T12:15:26.288Z,6.25
2023-08-20T12:17:57.857Z,4.18
2023-08-20T12:20:24.708Z,4.72
2023-08-20T12:22:51.442Z,11.20
2023-08-20T12:25:18.570Z,4.05
2023-08-20T12:27:45.389Z,5.97
2023-08-20T12:30:12.872Z,5.45
2023-08-20T12:32:39.721Z,4.43
2023-08-20T12:35:07.672Z,5.00
2023-08-20T12:37:35.500Z,5.43
2023-08-20T12:40:02.504Z,5.47
2023-08-20T12:42:30.422Z,6.47
2023-08-20T12:44:57.197Z,6.75
2023-08-20T12:47:23.999Z,5.20
2023-08-20T12:49:50.802Z,8.40
2023-08-20T12:52:17.583Z,4.88
2023-08-20T12:54:44.382Z,5.88
2023-08-20T12:57:11.159Z,5.72
2023-08-20T12:59:37.925Z,6.85
2023-08-20T13:02:04.925Z,7.93
2023-08-20T13:04:32.037Z,7.28
2023-08-20T13:06:59.023Z,4.35
2023-08-20T13:09:26.084Z,6.35
2023-08-20T13:11:56.474Z,6.65
2023-08-20T13:14:23.519Z,5.78
2023-08-20T13:16:50.660Z,6.57
2023-08-20T13:19:17.756Z,4.05
2023-08-20T13:21:44.477Z,7.60
2023-08-20T13:24:11.375Z,5.55
2023-08-20T13:26:38.137Z,7.82
2023-08-20T13:29:04.937Z,5.93
2023-08-20T13:31:31.756Z,8.60
2023-08-20T13:33:58.508Z,6.78
2023-08-20T13:36:25.296Z,9.27
2023-08-20T13:38:52.132Z,6.05
2023-08-20T13:41:19.331Z,5.95
2023-08-20T13:43:46.261Z,7.20
2023-08-20T13:46:13.080Z,6.28
2023-08-20T13:48:39.912Z,4.75
2023-08-20T13:51:06.671Z,3.90
2023-08-20T13:53:33.496Z,6.55
2023-08-20T13:56:00.285Z,7.05
2023-08-20T13:58:27.056Z,4.47
2023-08-20T14:00:53.844Z,4.22
2023-08-20T14:03:20.646Z,6.22
2023-08-20T14:05:47.453Z,7.38
2023-08-20T14:08:14.264Z,3.78
2023-08-20T14:10:41.190Z,10.05
2023-08-20T14:13:07.977Z,5.30
2023-08-20T14:15:34.810Z,5.22
2023-08-20T14:18:01.684Z,5.57
2023-08-20T14:20:28.628Z,4.90
2023-08-20T14:22:55.413Z,5.72
2023-08-20T14:25:22.180Z,5.80
2023-08-20T14:27:48.973Z,5.80
2023-08-20T14:30:15.812Z,6.38
2023-08-20T14:32:43.413Z,6.22
2023-08-20T14:35:11.101Z,6.30
2023-08-20T14:37:37.900Z,8.98
2023-08-20T14:40:07.616Z,4.30
2023-08-20T14:42:35.341Z,5.22
2023-08-20T14:45:03.885Z,6.55
2023-08-20T14:47:30.958Z,4.95
2023-08-20T14:49:57.746Z,4.95
2023-08-20T14:52:24.518Z,5.80
2023-08-20T14:54:51.388Z,5.60
2023-08-20T14:57:18.742Z,5.15
2023-08-20T14:59:45.780Z,4.85
2023-08-20T15:02:12.788Z,6.47
2023-08-20T15:04:39.668Z,5.32
2023-08-20T15:07:06.440Z,4.15
2023-08-20T15:09:33.223Z,5.32
2023-08-20T15:11:59.997Z,5.18
2023-08-20T15:14:26.912Z,8.73
2023-08-20T15:16:53.986Z,4.63
2023-08-20T15:19:20.989Z,4.70
2023-08-20T15:21:47.829Z,5.68
2023-08-20T15:24:14.826Z,5.32
2023-08-20T15:26:41.608Z,5.40
2023-08-20T15:29:08.452Z,7.35
2023-08-20T15:31:35.241Z,5.47
2023-08-20T15:34:02.042Z,7.78
2023-08-20T15:36:28.793Z,7.80
2023-08-20T15:38:55.602Z,5.63
2023-08-20T15:41:23.466Z,5.70
2023-08-20T15:43:50.956Z,8.55
2023-08-20T15:46:17.778Z,7.10
2023-08-20T15:48:44.892Z,4.22
2023-08-20T15:51:11.695Z,5.32
2023-08-20T15:53:39.050Z,5.47
2023-08-20T15:56:05.794Z,6.53
2023-08-20T15:58:33.361Z,8.18
2023-08-20T16:01:00.151Z,8.50
2023-08-20T16:03:27.022Z,6.00
2023-08-20T16:05:54.024Z,5.32
2023-08-20T16:08:20.977Z,5.22
2023-08-20T16:10:47.790Z,6.03
2023-08-20T16:13:14.592Z,7.15
2023-08-20T16:15:41.522Z,6.32
2023-08-20T16:18:09.013Z,4.70
2023-08-20T16:20:37.801Z,9.50
2023-08-20T16:23:04.894Z,9.05
2023-08-20T16:25:33.764Z,5.10
2023-08-20T16:28:00.625Z,5.65
2023-08-20T16:30:27.525Z,7.32
2023-08-20T16:32:54.591Z,9.32
2023-08-20T16:35:21.544Z,8.60
2023-08-20T16:37:48.286Z,8.95
2023-08-20T16:40:22.394Z,6.38
2023-08-20T16:42:49.159Z,5.10
2023-08-20T16:45:16.018Z,8.43
2023-08-20T16:47:42.817Z,8.02
2023-08-20T16:50:10.225Z,7.55
2023-08-20T16:52:37.021Z,6.68
2023-08-20T16:55:04.451Z,5.95
2023-08-20T16:57:31.259Z,7.20
2023-08-20T16:59:58.112Z,7.32
2023-08-20T17:02:24.860Z,7.22
2023-08-20T17:04:51.676Z,6.85
2023-08-20T17:07:18.466Z,6.90
2023-08-20T17:09:45.277Z,6.95
2023-08-20T17:12:12.251Z,5.43
2023-08-20T17:14:40.113Z,7.97
2023-08-20T17:17:07.505Z,5.88
2023-08-20T17:19:34.262Z,9.05
2023-08-20T17:22:01.181Z,11.35
2023-08-20T17:24:27.995Z,7.45
2023-08-20T17:26:54.721Z,6.90
2023-08-20T17:29:21.436Z,8.05
2023-08-20T17:31:48.177Z,6.68
2023-08-20T17:34:14.924Z,5.53
2023-08-20T17:36:41.695Z,9.38
2023-08-20T17:39:09.061Z,8.25
2023-08-20T17:41:35.838Z,7.82
2023-08-20T17:44:02.707Z,8.57
2023-08-20T17:46:43.641Z,8.30
2023-08-20T17:49:10.484Z,7.68
2023-08-20T17:51:37.310Z,7.32
2023-08-20T17:54:05.228Z,5.88
2023-08-20T17:56:32.122Z,5.55
2023-08-20T17:58:58.884Z,7.90
2023-08-20T18:01:25.798Z,7.95
2023-08-20T18:03:52.992Z,7.90
2023-08-20T18:06:19.838Z,7.22
2023-08-20T18:08:46.921Z,10.82
2023-08-20T18:11:13.707Z,5.32
2023-08-20T18:13:40.849Z,6.57
2023-08-20T18:16:09.413Z,8.85
2023-08-20T18:18:37.595Z,7.72
2023-08-20T18:21:04.429Z,6.53
2023-08-20T18:23:31.239Z,8.15
2023-08-20T18:25:58.893Z,7.03
2023-08-20T18:28:25.666Z,8.25
2023-08-20T18:30:55.772Z,10.27
2023-08-20T18:33:22.842Z,7.83
2023-08-20T18:35:56.699Z,4.28
2023-08-20T18:38:32.638Z,8.02
2023-08-20T18:41:04.127Z,5.75
2023-08-20T18:43:31.207Z,6.82
2023-08-20T18:45:58.110Z,10.30
2023-08-20T18:48:25.005Z,7.35
2023-08-20T18:50:51.927Z,6.80
2023-08-20T18:53:18.705Z,6.43
2023-08-20T18:55:45.449Z,6.82
2023-08-20T18:58:12.267Z,6.05
2023-08-20T19:00:39.382Z,8.85
2023-08-20T19:03:08.019Z,5.03
2023-08-20T19:05:34.996Z,8.57
2023-08-20T19:08:01.876Z,8.23
2023-08-20T19:10:29.424Z,6.97
2023-08-20T19:12:56.262Z,4.80
2023-08-20T19:15:23.032Z,4.35
2023-08-20T19:17:50.035Z,4.10
2023-08-20T19:20:16.884Z,5.03
2023-08-20T19:22:43.826Z,6.13
2023-08-20T19:25:10.813Z,7.68
2023-08-20T19:27:37.647Z,7.85
2023-08-20T19:30:07.295Z,9.95
2023-08-20T19:32:35.665Z,8.50
2023-08-20T19:35:02.982Z,9.82
2023-08-20T19:37:30.519Z,9.27
2023-08-20T19:39:57.395Z,7.93
2023-08-20T19:42:24.258Z,8.55
2023-08-20T19:44:51.201Z,4.60
2023-08-20T19:47:18.010Z,9.02
2023-08-20T19:49:44.775Z,7.65
2023-08-20T19:52:11.545Z,6.10
2023-08-20T19:54:38.352Z,4.65
2023-08-20T19:57:05.152Z,7.18
2023-08-20T19:59:31.982Z,5.55
2023-08-20T20:01:58.749Z,8.98
2023-08-20T20:04:25.683Z,8.05
2023-08-20T20:06:52.910Z,6.25
2023-08-20T20:09:21.147Z,5.72
2023-08-20T20:11:47.946Z,6.25
2023-08-20T20:14:14.731Z,8.90
2023-08-20T20:16:41.598Z,6.68
2023-08-20T20:19:08.404Z,4.85
2023-08-20T20:21:35.202Z,7.28
2023-08-20T20:24:02.098Z,8.45
2023-08-20T20:26:28.925Z,8.90
2023-08-20T20:28:55.806Z,8.35
2023-08-20T20:31:22.840Z,8.45
2023-08-20T20:33:49.691Z,5.75
2023-08-20T20:36:16.770Z,6.75
2023-08-20T20:38:43.531Z,8.70
2023-08-20T20:41:11.175Z,6.65
2023-08-20T20:43:37.887Z,8.07
2023-08-20T20:46:04.820Z,10.63
2023-08-20T20:48:31.581Z,5.22
2023-08-20T20:50:58.313Z,7.40
2023-08-20T20:53:25.099Z,10.50
2023-08-20T20:55:51.894Z,8.07
2023-08-20T20:58:18.903Z,3.40
2023-08-20T21:00:47.198Z,6.70
2023-08-20T21:03:14.025Z,9.25
2023-08-20T21:05:44.422Z,8.77
2023-08-20T21:08:11.216Z,4.47
2023-08-20T21:10:37.956Z,6.68
2023-08-20T21:13:06.785Z,5.85
2023-08-20T21:15:33.513Z,8.73
2023-08-20T21:18:00.270Z,5.07
2023-08-20T21:20:27.104Z,8.50
2023-08-20T21:22:55.438Z,4.68
2023-08-20T21:25:22.279Z,6.22
2023-08-20T21:27:49.044Z,7.25
2023-08-20T21:30:16.223Z,10.70
2023-08-20T21:32:43.076Z,5.88
2023-08-20T21:35:09.977Z,4.32
2023-08-20T21:37:36.740Z,5.50
2023-08-20T21:40:03.745Z,6.05
2023-08-20T21:42:30.577Z,6.25
2023-08-20T21:44:57.432Z,5.82
2023-08-20T21:47:26.155Z,4.30
2023-08-20T21:49:54.356Z,9.48
2023-08-20T21:52:22.537Z,8.85
2023-08-20T21:54:49.487Z,3.85
2023-08-20T21:57:21.115Z,8.18
2023-08-20T21:59:52.587Z,5.40
2023-08-20T22:02:19.884Z,9.10
2023-08-20T22:04:46.836Z,4.70
2023-08-20T22:07:13.591Z,8.80
2023-08-20T22:09:40.417Z,5.50
2023-08-20T22:12:07.630Z,5.47
2023-08-20T22:14:34.685Z,9.57
2023-08-20T22:17:06.892Z,5.28
2023-08-20T22:19:36.268Z,5.50
2023-08-20T22:22:03.329Z,7.07
2023-08-20T22:24:30.106Z,7.82
2023-08-20T22:26:56.889Z,6.50
2023-08-20T22:29:23.667Z,6.78
2023-08-20T22:31:50.638Z,8.80
2023-08-20T22:34:17.442Z,9.48
2023-08-20T22:36:45.207Z,5.78
2023-08-20T22:39:13.963Z,6.25
2023-08-20T22:41:40.791Z,6.72
2023-08-20T22:44:08.103Z,5.55
2023-08-20T22:46:34.943Z,7.78
2023-08-20T22:49:02.432Z,7.35
2023-08-20T22:51:29.567Z,5.90
2023-08-20T22:53:56.871Z,6.88
2023-08-20T22:56:24.623Z,7.82
2023-08-20T22:58:51.460Z,8.23
2023-08-20T23:01:18.325Z,7.22
2023-08-20T23:03:45.126Z,5.65
2023-08-20T23:06:11.906Z,4.47
2023-08-20T23:08:38.686Z,7.88
2023-08-20T23:11:05.415Z,7.03
2023-08-20T23:13:32.188Z,7.57
2023-08-20T23:15:58.957Z,11.15
2023-08-20T23:18:25.679Z,6.15
2023-08-20T23:21:01.400Z,4.72
2023-08-20T23:23:31.230Z,8.52
2023-08-20T23:25:57.950Z,5.75
2023-08-20T23:28:25.168Z,9.30
2023-08-20T23:30:52.009Z,6.65
2023-08-20T23:33:19.048Z,6.95
2023-08-20T23:35:45.913Z,7.72
2023-08-20T23:38:13.762Z,7.55
2023-08-20T23:40:40.682Z,5.28
2023-08-20T23:43:07.452Z,8.07
2023-08-20T23:45:34.220Z,8.15
2023-08-20T23:48:01.023Z,8.57
2023-08-20T23:50:27.803Z,6.93
2023-08-20T23:52:54.842Z,3.75
2023-08-20T23:55:21.683Z,9.60
2023-08-20T23:57:48.456Z,7.78
